Time;durP1;ratioP1;P1;durP2;ratioP2;P2;SDS_P1;SDS_P2;PMS_P1;PMS_P2;Temp;Humidity;BMP_temperature;BMP_pressure;BME280_temperature;BME280_humidity;BME280_pressure;Samples;Min_cycle;Max_cycle;Signal;HPM_P1;HPM_P2
2022/12/22 03:26:05;;;;;;;110.53;28.85;;;;;;;;;;5020565;28;20036;-94
2022/12/22 03:28:31;;;;;;;110.93;30.65;;;;;;;;;;5018323;28;20028;-94
2022/12/22 03:30:57;;;;;;;111.72;30.10;;;;;;;;;;5002269;28;20026;-94
2022/12/22 03:33:24;;;;;;;106.47;29.27;;;;;;;;;;5018097;28;20032;-94
2022/12/22 03:35:50;;;;;;;101.15;27.63;;;;;;;;;;5014738;28;20062;-95
2022/12/22 03:38:16;;;;;;;98.03;26.85;;;;;;;;;;4982632;28;20485;-94
2022/12/22 03:40:42;;;;;;;92.13;24.58;;;;;;;;;;4998490;28;20485;-93
2022/12/22 03:48:40;;;;;;;93.63;25.58;;;;;;;;;;5016117;28;20101;-92
2022/12/22 03:51:06;;;;;;;105.95;28.38;;;;;;;;;;5031550;28;20524;-95
2022/12/22 03:53:32;;;;;;;116.75;29.90;;;;;;;;;;4982447;28;20022;-94
2022/12/22 03:55:58;;;;;;;111.45;31.80;;;;;;;;;;4982411;28;20025;-94
2022/12/22 03:58:24;;;;;;;113.25;31.05;;;;;;;;;;4979263;28;20031;-95
2022/12/22 04:00:50;;;;;;;122.22;31.23;;;;;;;;;;4963089;28;20026;-94
2022/12/22 04:03:16;;;;;;;106.03;29.33;;;;;;;;;;5014469;28;20033;-95
2022/12/22 04:05:42;;;;;;;101.00;27.08;;;;;;;;;;4971059;28;20412;-95
2022/12/22 04:08:09;;;;;;;118.53;30.65;;;;;;;;;;4971371;28;20029;-94
2022/12/22 04:13:25;;;;;;;126.47;30.48;;;;;;;;;;5000732;28;20401;-94
2022/12/22 04:15:52;;;;;;;115.65;29.70;;;;;;;;;;4978328;28;20429;-95
2022/12/22 04:18:18;;;;;;;123.80;32.20;;;;;;;;;;4981691;28;20370;-94
2022/12/22 04:20:44;;;;;;;133.18;32.53;;;;;;;;;;4997912;28;20030;-94
2022/12/22 04:23:17;;;;;;;145.55;34.50;;;;;;;;;;4980427;28;20058;-94
2022/12/22 04:25:49;;;;;;;158.27;34.50;;;;;;;;;;4963260;28;20130;-94
2022/12/22 04:28:16;;;;;;;136.38;34.70;;;;;;;;;;4990153;28;20037;-94
2022/12/22 04:30:42;;;;;;;165.95;35.17;;;;;;;;;;4997594;28;20065;-95
2022/12/22 04:33:08;;;;;;;155.90;36.17;;;;;;;;;;4997763;28;20038;-95
2022/12/22 04:35:34;;;;;;;134.60;34.28;;;;;;;;;;4988631;28;20025;-95
2022/12/22 04:38:00;;;;;;;163.60;36.30;;;;;;;;;;4981609;28;20030;-94
2022/12/22 04:40:26;;;;;;;178.35;38.13;;;;;;;;;;4981973;28;20080;-95
2022/12/22 04:42:52;;;;;;;173.43;36.28;;;;;;;;;;4974799;28;20422;-94
2022/12/22 04:45:18;;;;;;;152.52;36.97;;;;;;;;;;4958926;28;20035;-95
2022/12/22 04:47:44;;;;;;;154.23;35.22;;;;;;;;;;4958360;28;20031;-94
2022/12/22 04:50:10;;;;;;;146.95;34.60;;;;;;;;;;4958906;28;20077;-95
2022/12/22 04:52:36;;;;;;;161.07;35.00;;;;;;;;;;4958389;28;20030;-95
2022/12/22 04:55:02;;;;;;;179.30;36.92;;;;;;;;;;4965551;28;20031;-94
2022/12/22 04:57:28;;;;;;;169.65;38.40;;;;;;;;;;4958262;28;20122;-94
2022/12/22 04:59:54;;;;;;;213.32;39.85;;;;;;;;;;4942640;28;20070;-95
2022/12/22 05:02:21;;;;;;;142.95;33.15;;;;;;;;;;4960107;28;20033;-95
2022/12/22 05:04:47;;;;;;;152.88;35.28;;;;;;;;;;4958708;28;20430;-94
2022/12/22 05:07:13;;;;;;;132.70;31.95;;;;;;;;;;4958785;28;20086;-94
2022/12/22 05:09:39;;;;;;;142.73;33.75;;;;;;;;;;4942706;28;20062;-94
2022/12/22 05:12:53;;;;;;;129.07;32.92;;;;;;;;;;4987011;28;20069;-95
2022/12/22 05:14:51;;;;;;;113.60;28.95;;;;;;;;;;4994989;28;20031;-95
2022/12/22 05:17:17;;;;;;;135.55;32.78;;;;;;;;;;4961392;28;20035;-94
2022/12/22 05:19:43;;;;;;;121.80;30.42;;;;;;;;;;4958158;28;20138;-94
2022/12/22 05:22:09;;;;;;;115.72;29.40;;;;;;;;;;4979931;28;20045;-95
2022/12/22 05:24:35;;;;;;;140.60;30.00;;;;;;;;;;5001643;28;20057;-95
2022/12/22 05:27:02;;;;;;;129.73;30.45;;;;;;;;;;5003612;28;20026;-94
2022/12/22 05:29:28;;;;;;;109.57;29.15;;;;;;;;;;5004311;28;20030;-95
2022/12/22 05:31:54;;;;;;;135.55;29.80;;;;;;;;;;5004240;28;20439;-95
2022/12/22 05:34:20;;;;;;;111.28;27.95;;;;;;;;;;5020440;28;20029;-95
2022/12/22 05:36:46;;;;;;;105.43;26.88;;;;;;;;;;4984613;28;20503;-95
2022/12/22 05:39:13;;;;;;;120.32;27.83;;;;;;;;;;4984646;28;20516;-95
2022/12/22 05:41:39;;;;;;;108.93;26.63;;;;;;;;;;4984379;28;20073;-95
2022/12/22 05:44:05;;;;;;;112.28;24.75;;;;;;;;;;5000725;28;20476;-95
2022/12/22 05:46:31;;;;;;;107.40;25.90;;;;;;;;;;5001051;28;20393;-94
2022/12/22 05:48:57;;;;;;;117.13;31.88;;;;;;;;;;4996195;28;20419;-95
2022/12/22 05:51:23;;;;;;;120.63;30.70;;;;;;;;;;4994253;28;20026;-95
2022/12/22 05:53:49;;;;;;;101.78;26.42;;;;;;;;;;4984377;28;20033;-94
2022/12/22 05:56:15;;;;;;;105.25;24.10;;;;;;;;;;4981335;28;20493;-96
2022/12/22 05:58:41;;;;;;;95.43;21.63;;;;;;;;;;4981535;28;20124;-95
2022/12/22 06:01:08;;;;;;;92.93;20.63;;;;;;;;;;4981290;28;20078;-95
2022/12/22 06:03:34;;;;;;;97.38;21.45;;;;;;;;;;4992003;28;20041;-95
2022/12/22 06:06:00;;;;;;;92.63;20.10;;;;;;;;;;4984295;28;20057;-95
2022/12/22 06:08:26;;;;;;;77.22;17.95;;;;;;;;;;4984368;28;20481;-94
2022/12/22 06:10:56;;;;;;;73.40;17.77;;;;;;;;;;5000492;28;20098;-95
2022/12/22 06:13:23;;;;;;;69.28;17.08;;;;;;;;;;4984454;28;20132;-95
2022/12/22 06:15:49;;;;;;;60.55;15.77;;;;;;;;;;4991661;28;20421;-95
2022/12/22 06:18:15;;;;;;;62.25;16.77;;;;;;;;;;4981108;28;20044;-94
2022/12/22 06:20:41;;;;;;;66.50;18.05;;;;;;;;;;4965274;28;20026;-95
2022/12/22 06:23:07;;;;;;;64.00;17.63;;;;;;;;;;4998181;28;20030;-95
2022/12/22 06:25:33;;;;;;;75.55;18.65;;;;;;;;;;4981278;28;20030;-95
2022/12/22 06:28:00;;;;;;;70.25;16.98;;;;;;;;;;4984621;28;20037;-95
2022/12/22 06:30:26;;;;;;;65.97;16.65;;;;;;;;;;4984437;28;20033;-95
2022/12/22 06:32:52;;;;;;;57.75;15.73;;;;;;;;;;4984440;28;20038;-96
2022/12/22 06:35:22;;;;;;;63.97;17.00;;;;;;;;;;4987129;28;20507;-96
2022/12/22 06:37:55;;;;;;;62.65;16.40;;;;;;;;;;5029211;28;20021;-96
2022/12/22 06:43:09;;;;;;;61.05;17.05;;;;;;;;;;4969354;28;20241;-92
2022/12/22 06:45:36;;;;;;;60.13;17.50;;;;;;;;;;4954380;28;20030;-91
2022/12/22 06:48:02;;;;;;;66.78;17.20;;;;;;;;;;4952898;28;20093;-90
2022/12/22 06:50:28;;;;;;;69.15;19.05;;;;;;;;;;4967216;28;20040;-90
2022/12/22 06:52:55;;;;;;;72.20;19.60;;;;;;;;;;4949421;28;20055;-89
2022/12/22 06:55:21;;;;;;;59.70;18.58;;;;;;;;;;4967371;28;20031;-90
2022/12/22 06:57:47;;;;;;;78.85;20.15;;;;;;;;;;4986045;28;20505;-90
2022/12/22 07:00:13;;;;;;;63.63;18.23;;;;;;;;;;4956672;28;20134;-90
2022/12/22 07:02:39;;;;;;;84.43;19.55;;;;;;;;;;5000886;28;20030;-90
2022/12/22 07:05:05;;;;;;;71.13;18.55;;;;;;;;;;4984555;28;20027;-91
2022/12/22 07:07:31;;;;;;;62.85;18.58;;;;;;;;;;4957571;28;20149;-91
2022/12/22 07:09:57;;;;;;;96.30;23.63;;;;;;;;;;4973201;28;20557;-90
2022/12/22 07:12:24;;;;;;;90.15;22.75;;;;;;;;;;4974422;28;20042;-90
2022/12/22 07:14:50;;;;;;;98.38;22.80;;;;;;;;;;4965150;28;20099;-90
2022/12/22 07:17:16;;;;;;;70.53;18.50;;;;;;;;;;4982031;28;20034;-91
2022/12/22 07:19:42;;;;;;;53.28;13.25;;;;;;;;;;4969714;28;20031;-91
2022/12/22 07:22:08;;;;;;;76.03;17.67;;;;;;;;;;4949510;28;20137;-89
2022/12/22 07:24:34;;;;;;;74.30;18.13;;;;;;;;;;4952787;28;20854;-88
2022/12/22 07:27:00;;;;;;;58.03;14.80;;;;;;;;;;4982286;28;20026;-89
2022/12/22 07:29:26;;;;;;;94.85;19.92;;;;;;;;;;4970925;28;20114;-89
2022/12/22 07:31:52;;;;;;;57.38;14.82;;;;;;;;;;4980632;28;20073;-88
2022/12/22 07:34:19;;;;;;;65.22;16.35;;;;;;;;;;4969386;28;20031;-88
2022/12/22 07:36:45;;;;;;;69.25;17.02;;;;;;;;;;4970481;28;20618;-88
2022/12/22 07:39:11;;;;;;;73.75;17.88;;;;;;;;;;4966671;28;20034;-89
2022/12/22 07:44:22;;;;;;;62.35;16.88;;;;;;;;;;4982626;28;20089;-90
2022/12/22 07:46:48;;;;;;;70.07;19.70;;;;;;;;;;4961394;28;20050;-88
2022/12/22 07:51:59;;;;;;;83.22;20.13;;;;;;;;;;4966070;28;20081;-88
2022/12/22 07:54:26;;;;;;;67.05;17.88;;;;;;;;;;4966894;28;20033;-88
2022/12/22 07:56:52;;;;;;;66.82;17.15;;;;;;;;;;4967030;28;20030;-88
2022/12/22 07:59:18;;;;;;;78.53;16.50;;;;;;;;;;4967279;28;20029;-88
2022/12/22 08:01:44;;;;;;;45.35;13.95;;;;;;;;;;4971794;28;20045;-88
2022/12/22 08:04:11;;;;;;;61.83;15.60;;;;;;;;;;4982899;28;20501;-88
2022/12/22 08:06:38;;;;;;;73.90;16.27;;;;;;;;;;4966185;28;20037;-88
2022/12/22 08:09:04;;;;;;;58.88;16.15;;;;;;;;;;4972729;28;20030;-89
2022/12/22 08:11:31;;;;;;;57.92;14.73;;;;;;;;;;4944787;28;20053;-89
2022/12/22 08:13:57;;;;;;;59.38;15.32;;;;;;;;;;4950871;28;20107;-90
2022/12/22 08:16:23;;;;;;;52.78;13.70;;;;;;;;;;4979646;28;20097;-89
2022/12/22 08:18:49;;;;;;;58.60;14.40;;;;;;;;;;4948870;28;20042;-90
2022/12/22 08:21:15;;;;;;;58.17;13.50;;;;;;;;;;4974010;28;20481;-90
2022/12/22 08:23:41;;;;;;;51.92;14.65;;;;;;;;;;4982421;28;20022;-89
2022/12/22 08:26:10;;;;;;;52.35;12.95;;;;;;;;;;4973626;28;20037;-91
2022/12/22 08:28:39;;;;;;;57.25;14.82;;;;;;;;;;4973520;28;20041;-92
2022/12/22 08:31:05;;;;;;;52.40;13.68;;;;;;;;;;4968062;28;20085;-91
2022/12/22 08:33:32;;;;;;;48.47;11.88;;;;;;;;;;4952709;28;20088;-90
2022/12/22 08:35:58;;;;;;;55.85;14.13;;;;;;;;;;4969352;28;20116;-91
2022/12/22 08:38:24;;;;;;;56.80;13.43;;;;;;;;;;4953868;28;20048;-91
2022/12/22 08:40:50;;;;;;;63.33;15.65;;;;;;;;;;4951516;28;20039;-90
2022/12/22 08:43:24;;;;;;;56.85;17.05;;;;;;;;;;4978335;28;20398;-91
2022/12/22 08:45:50;;;;;;;58.10;15.57;;;;;;;;;;4978234;28;20034;-90
2022/12/22 08:48:16;;;;;;;62.92;17.42;;;;;;;;;;4984703;28;20127;-91
2022/12/22 08:50:42;;;;;;;95.07;21.63;;;;;;;;;;4997038;28;20128;-91
2022/12/22 08:53:08;;;;;;;78.43;20.23;;;;;;;;;;4987030;28;20057;-90
2022/12/22 08:55:34;;;;;;;81.68;23.63;;;;;;;;;;4990649;28;20037;-90
2022/12/22 08:58:00;;;;;;;63.28;16.88;;;;;;;;;;5001453;28;20065;-91
2022/12/22 09:00:26;;;;;;;57.50;16.88;;;;;;;;;;4977248;28;20504;-91
2022/12/22 09:02:53;;;;;;;72.45;19.48;;;;;;;;;;4995009;28;20092;-91
2022/12/22 09:05:19;;;;;;;49.72;12.68;;;;;;;;;;4979566;28;20057;-90
2022/12/22 09:07:46;;;;;;;30.63;9.77;;;;;;;;;;4988581;28;20042;-91
2022/12/22 09:10:12;;;;;;;36.05;10.00;;;;;;;;;;5002000;28;20530;-91
2022/12/22 09:12:38;;;;;;;80.85;14.15;;;;;;;;;;4992145;28;20038;-91
2022/12/22 09:15:07;;;;;;;58.65;12.63;;;;;;;;;;4985658;28;20029;-91
2022/12/22 09:17:34;;;;;;;60.92;11.93;;;;;;;;;;5000802;28;20023;-91
2022/12/22 09:20:01;;;;;;;77.13;12.65;;;;;;;;;;4993300;28;20088;-91
2022/12/22 09:22:27;;;;;;;48.05;11.48;;;;;;;;;;4989941;28;20038;-92
2022/12/22 09:24:53;;;;;;;46.95;9.48;;;;;;;;;;4972634;28;20682;-91
2022/12/22 09:27:19;;;;;;;51.35;11.77;;;;;;;;;;4974478;28;20069;-91
2022/12/22 09:29:45;;;;;;;37.13;8.52;;;;;;;;;;5001671;28;20044;-91
2022/12/22 09:32:11;;;;;;;19.23;6.07;;;;;;;;;;4993903;28;20030;-91
2022/12/22 09:34:37;;;;;;;42.03;10.38;;;;;;;;;;5012881;28;20038;-91
2022/12/22 09:37:05;;;;;;;12.82;4.97;;;;;;;;;;4973251;28;20033;-91
2022/12/22 09:39:31;;;;;;;43.70;9.50;;;;;;;;;;4973481;28;20038;-91
2022/12/22 09:41:58;;;;;;;30.35;9.35;;;;;;;;;;4995776;28;20111;-91
2022/12/22 09:44:24;;;;;;;40.67;9.77;;;;;;;;;;4975673;28;20444;-90
2022/12/22 09:46:50;;;;;;;46.83;9.23;;;;;;;;;;4993680;28;20041;-91
2022/12/22 09:49:23;;;;;;;29.35;7.82;;;;;;;;;;5002283;28;20035;-91
2022/12/22 09:51:53;;;;;;;42.50;9.95;;;;;;;;;;4987874;28;20030;-91
2022/12/22 09:54:20;;;;;;;31.23;6.75;;;;;;;;;;5002685;28;20093;-91
2022/12/22 09:56:46;;;;;;;25.85;8.20;;;;;;;;;;4990594;28;20377;-91
2022/12/22 09:59:14;;;;;;;14.00;5.13;;;;;;;;;;4989122;28;20037;-90
2022/12/22 10:01:55;;;;;;;29.17;6.88;;;;;;;;;;4993720;28;20505;-91
2022/12/22 10:04:40;;;;;;;16.23;4.47;;;;;;;;;;4989479;28;20032;-91
2022/12/22 10:07:18;;;;;;;23.40;5.82;;;;;;;;;;4995124;28;20555;-91
2022/12/22 10:09:44;;;;;;;18.70;6.05;;;;;;;;;;4996693;28;20029;-91
2022/12/22 10:12:13;;;;;;;11.68;3.78;;;;;;;;;;4996489;28;20127;-90
2022/12/22 10:14:42;;;;;;;15.38;6.32;;;;;;;;;;4991046;28;20037;-91
2022/12/22 10:17:19;;;;;;;18.98;6.05;;;;;;;;;;4992670;28;20038;-91
2022/12/22 10:19:46;;;;;;;15.13;5.45;;;;;;;;;;4989536;28;20084;-92
2022/12/22 10:22:22;;;;;;;19.58;6.68;;;;;;;;;;4974509;28;20833;-92
2022/12/22 10:24:48;;;;;;;15.50;6.32;;;;;;;;;;5001685;28;20037;-91
2022/12/22 10:27:14;;;;;;;11.55;4.63;;;;;;;;;;4980414;28;20045;-90
2022/12/22 10:29:40;;;;;;;15.43;5.30;;;;;;;;;;4975795;28;20033;-90
2022/12/22 10:32:15;;;;;;;15.55;4.78;;;;;;;;;;4989127;28;20045;-91
2022/12/22 10:35:00;;;;;;;15.77;5.43;;;;;;;;;;4999234;28;20145;-91
2022/12/22 10:37:31;;;;;;;15.40;5.43;;;;;;;;;;4985680;28;20104;-91
2022/12/22 10:39:57;;;;;;;11.80;4.65;;;;;;;;;;5006689;28;20713;-92
2022/12/22 10:42:23;;;;;;;17.08;5.53;;;;;;;;;;4983278;28;20081;-90
2022/12/22 10:44:50;;;;;;;15.77;4.85;;;;;;;;;;4973918;28;20033;-91
2022/12/22 10:47:22;;;;;;;18.80;5.68;;;;;;;;;;4984687;28;20508;-91
2022/12/22 10:49:55;;;;;;;16.35;5.28;;;;;;;;;;4987774;28;20501;-90
2022/12/22 10:52:23;;;;;;;14.52;5.35;;;;;;;;;;4988775;28;20599;-91
2022/12/22 10:54:49;;;;;;;17.48;4.82;;;;;;;;;;4984486;28;20477;-92
2022/12/22 10:57:18;;;;;;;14.70;5.70;;;;;;;;;;4992974;28;20068;-89
2022/12/22 10:59:54;;;;;;;16.48;5.93;;;;;;;;;;4993347;28;20030;-91
2022/12/22 11:02:24;;;;;;;20.75;7.22;;;;;;;;;;5000693;28;20037;-91
2022/12/22 11:04:51;;;;;;;8.40;3.65;;;;;;;;;;4999165;28;20019;-91
2022/12/22 11:07:17;;;;;;;20.80;6.13;;;;;;;;;;4989798;28;20026;-91
2022/12/22 11:09:43;;;;;;;18.60;5.78;;;;;;;;;;4981211;28;20124;-91
2022/12/22 11:12:21;;;;;;;17.25;5.30;;;;;;;;;;4999958;28;20080;-90
2022/12/22 11:14:57;;;;;;;17.63;5.10;;;;;;;;;;5002452;28;20030;-91
2022/12/22 11:17:36;;;;;;;9.48;3.85;;;;;;;;;;4999559;28;20026;-91
2022/12/22 11:20:21;;;;;;;16.83;6.53;;;;;;;;;;5001911;28;20026;-91
2022/12/22 11:23:05;;;;;;;16.00;5.80;;;;;;;;;;4998407;28;20048;-91
2022/12/22 11:25:41;;;;;;;12.18;6.32;;;;;;;;;;5003623;28;20023;-91
2022/12/22 11:28:25;;;;;;;11.55;5.22;;;;;;;;;;4988964;28;20064;-92
2022/12/22 11:30:54;;;;;;;8.90;4.30;;;;;;;;;;4985550;28;20045;-91
2022/12/22 11:33:28;;;;;;;12.35;4.18;;;;;;;;;;5000625;28;20030;-90
2022/12/22 11:36:05;;;;;;;9.95;5.55;;;;;;;;;;4998064;28;20058;-91
2022/12/22 11:38:37;;;;;;;7.10;4.03;;;;;;;;;;5000389;28;20461;-91
2022/12/22 11:41:12;;;;;;;13.57;4.70;;;;;;;;;;4997821;28;20030;-91
2022/12/22 11:43:44;;;;;;;13.60;4.93;;;;;;;;;;4981938;28;20424;-90
2022/12/22 11:46:29;;;;;;;10.07;4.13;;;;;;;;;;4987833;28;20067;-92
2022/12/22 11:48:58;;;;;;;9.10;3.10;;;;;;;;;;4981741;28;20030;-91
2022/12/22 11:51:24;;;;;;;14.55;4.15;;;;;;;;;;4997537;28;20036;-90
2022/12/22 11:53:53;;;;;;;12.05;3.30;;;;;;;;;;4982496;28;20022;-91
2022/12/22 11:56:22;;;;;;;15.38;3.92;;;;;;;;;;4986977;28;20026;-91
2022/12/22 11:59:07;;;;;;;5.75;3.13;;;;;;;;;;4990427;28;20519;-89
2022/12/22 12:01:33;;;;;;;8.27;3.53;;;;;;;;;;4996952;28;20026;-91
2022/12/22 12:04:18;;;;;;;10.00;2.83;;;;;;;;;;4979613;28;20037;-89
2022/12/22 12:06:55;;;;;;;18.23;4.90;;;;;;;;;;4981093;28;20401;-91
2022/12/22 12:09:24;;;;;;;11.98;3.30;;;;;;;;;;5000257;28;20021;-90
2022/12/22 12:12:01;;;;;;;7.97;2.80;;;;;;;;;;4999753;28;20393;-91
2022/12/22 12:14:41;;;;;;;7.20;2.72;;;;;;;;;;4986966;28;20478;-91
2022/12/22 12:17:26;;;;;;;12.85;2.88;;;;;;;;;;4980882;28;20030;-90
2022/12/22 12:20:02;;;;;;;11.65;4.00;;;;;;;;;;4993986;28;20393;-91
2022/12/22 12:22:40;;;;;;;7.07;3.30;;;;;;;;;;5003207;28;20099;-90
2022/12/22 12:25:10;;;;;;;10.15;5.03;;;;;;;;;;5003961;28;20032;-90
2022/12/22 12:27:48;;;;;;;8.23;2.47;;;;;;;;;;4998627;28;20505;-91
2022/12/22 12:30:18;;;;;;;15.85;2.95;;;;;;;;;;4983058;28;20030;-90
2022/12/22 12:32:47;;;;;;;9.80;3.13;;;;;;;;;;4988929;28;20030;-90
2022/12/22 12:35:29;;;;;;;14.32;2.95;;;;;;;;;;4978765;28;20026;-90
2022/12/22 12:37:57;;;;;;;16.40;2.70;;;;;;;;;;4981464;28;20121;-90
2022/12/22 12:40:46;;;;;;;8.40;2.72;;;;;;;;;;4984426;28;20091;-92
2022/12/22 12:43:19;;;;;;;16.23;3.67;;;;;;;;;;4980489;28;20215;-91
2022/12/22 12:45:54;;;;;;;10.32;3.00;;;;;;;;;;4985281;28;20489;-92
2022/12/22 12:48:28;;;;;;;7.45;1.75;;;;;;;;;;4995351;28;20072;-90
2022/12/22 12:50:55;;;;;;;5.70;2.17;;;;;;;;;;4971988;28;20470;-91
2022/12/22 12:53:25;;;;;;;16.23;2.92;;;;;;;;;;4993153;28;20030;-91
2022/12/22 12:55:51;;;;;;;21.58;3.25;;;;;;;;;;4992380;28;20033;-91
2022/12/22 12:58:38;;;;;;;13.10;2.92;;;;;;;;;;4993491;28;20038;-91
2022/12/22 13:01:08;;;;;;;9.07;2.58;;;;;;;;;;4995761;28;20531;-90
2022/12/22 13:03:35;;;;;;;10.80;3.38;;;;;;;;;;4983716;28;20474;-91
2022/12/22 13:06:03;;;;;;;14.02;2.67;;;;;;;;;;4996727;28;20026;-90
2022/12/22 13:08:30;;;;;;;10.90;2.70;;;;;;;;;;4982163;28;20034;-90
2022/12/22 13:10:56;;;;;;;16.50;3.65;;;;;;;;;;4968917;28;20058;-91
2022/12/22 13:13:25;;;;;;;18.98;3.63;;;;;;;;;;4999315;28;20033;-90
2022/12/22 13:16:00;;;;;;;2.72;1.25;;;;;;;;;;4998573;28;20192;-90
2022/12/22 13:18:29;;;;;;;10.57;3.15;;;;;;;;;;4998687;28;20489;-90
2022/12/22 13:20:57;;;;;;;15.98;2.97;;;;;;;;;;4983209;28;20461;-90
2022/12/22 13:23:24;;;;;;;7.63;1.85;;;;;;;;;;4994694;28;20552;-91
2022/12/22 13:25:57;;;;;;;20.33;2.83;;;;;;;;;;4981191;28;20026;-91
2022/12/22 13:28:24;;;;;;;16.50;3.88;;;;;;;;;;4994860;28;20542;-90
2022/12/22 13:30:59;;;;;;;15.27;3.22;;;;;;;;;;4993063;28;20464;-90
2022/12/22 13:33:37;;;;;;;13.43;2.65;;;;;;;;;;4976069;28;20033;-89
2022/12/22 13:36:04;;;;;;;16.73;2.97;;;;;;;;;;4998318;28;20029;-91
2022/12/22 13:38:32;;;;;;;12.80;3.28;;;;;;;;;;4972683;28;20507;-90
2022/12/22 13:41:00;;;;;;;14.32;3.15;;;;;;;;;;4989228;28;20026;-91
2022/12/22 13:43:33;;;;;;;12.25;2.08;;;;;;;;;;4981333;28;20054;-90
2022/12/22 13:46:01;;;;;;;12.88;2.63;;;;;;;;;;4994718;28;20022;-90
2022/12/22 13:48:31;;;;;;;13.10;3.78;;;;;;;;;;4986686;28;20049;-91
2022/12/22 13:50:59;;;;;;;12.95;2.53;;;;;;;;;;4983355;28;20040;-90
2022/12/22 13:53:29;;;;;;;12.38;2.90;;;;;;;;;;4993757;28;20045;-90
2022/12/22 13:55:57;;;;;;;11.45;2.20;;;;;;;;;;4996599;28;20383;-90
2022/12/22 13:58:30;;;;;;;11.90;2.35;;;;;;;;;;4999167;28;20363;-90
2022/12/22 14:01:13;;;;;;;14.38;2.85;;;;;;;;;;4996575;28;20072;-90
2022/12/22 14:04:00;;;;;;;25.92;2.97;;;;;;;;;;4995409;28;20029;-90
2022/12/22 14:06:26;;;;;;;13.88;3.20;;;;;;;;;;4986504;28;20038;-90
2022/12/22 14:08:52;;;;;;;15.38;2.78;;;;;;;;;;4999130;28;20375;-91
2022/12/22 14:11:19;;;;;;;17.63;3.10;;;;;;;;;;4980819;28;20072;-90
2022/12/22 14:13:45;;;;;;;10.35;2.75;;;;;;;;;;4960411;28;20579;-90
2022/12/22 14:16:14;;;;;;;8.68;2.22;;;;;;;;;;4994282;28;20536;-91
2022/12/22 14:18:41;;;;;;;13.43;5.32;;;;;;;;;;5001849;28;20038;-89
2022/12/22 14:21:10;;;;;;;15.68;3.25;;;;;;;;;;4985261;28;20069;-91
2022/12/22 14:23:41;;;;;;;7.07;2.80;;;;;;;;;;4983821;28;20252;-90
2022/12/22 14:26:12;;;;;;;9.57;3.38;;;;;;;;;;5000917;28;20550;-91
2022/12/22 14:28:42;;;;;;;13.40;3.35;;;;;;;;;;5000565;28;20278;-91
2022/12/22 14:31:11;;;;;;;7.93;2.60;;;;;;;;;;5000474;28;20046;-91
2022/12/22 14:33:37;;;;;;;14.73;3.17;;;;;;;;;;4999385;28;20383;-91
2022/12/22 14:36:17;;;;;;;15.35;3.05;;;;;;;;;;4996074;28;20068;-90
2022/12/22 14:38:46;;;;;;;13.70;2.58;;;;;;;;;;4986895;28;20046;-90
2022/12/22 14:44:36;;;;;;;8.48;2.42;;;;;;;;;;5003743;28;20053;-92
2022/12/22 14:47:05;;;;;;;14.50;2.83;;;;;;;;;;4996153;28;20108;-90
2022/12/22 14:49:32;;;;;;;12.85;2.45;;;;;;;;;;4983518;28;20787;-91
2022/12/22 14:52:03;;;;;;;13.70;2.60;;;;;;;;;;4983522;28;20042;-91
2022/12/22 14:54:29;;;;;;;20.67;2.20;;;;;;;;;;4996348;28;20065;-90
2022/12/22 14:57:00;;;;;;;17.77;2.67;;;;;;;;;;4987716;28;20169;-90
2022/12/22 14:59:27;;;;;;;9.70;1.80;;;;;;;;;;4993829;28;20034;-91
2022/12/22 15:02:12;;;;;;;17.15;2.28;;;;;;;;;;4993057;28;20070;-89
2022/12/22 15:04:38;;;;;;;9.45;2.20;;;;;;;;;;4997149;28;20393;-90
2022/12/22 15:07:15;;;;;;;4.47;1.30;;;;;;;;;;4965458;28;20034;-90
2022/12/22 15:09:41;;;;;;;9.23;2.50;;;;;;;;;;4976477;28;20378;-90
2022/12/22 15:12:12;;;;;;;13.70;2.40;;;;;;;;;;4995596;28;20033;-90
2022/12/22 15:14:47;;;;;;;6.68;2.08;;;;;;;;;;4976921;28;20022;-91
2022/12/22 15:17:33;;;;;;;13.15;2.05;;;;;;;;;;4979259;28;20030;-91
2022/12/22 15:20:00;;;;;;;10.20;2.40;;;;;;;;;;4976675;28;20041;-90
2022/12/22 15:22:28;;;;;;;6.57;2.10;;;;;;;;;;4994269;28;20106;-91
2022/12/22 15:24:57;;;;;;;10.73;2.20;;;;;;;;;;4993297;28;20992;-91
2022/12/22 15:27:23;;;;;;;13.95;3.50;;;;;;;;;;4993242;28;20041;-90
2022/12/22 15:29:49;;;;;;;7.38;1.80;;;;;;;;;;4957308;28;20505;-90
2022/12/22 15:32:15;;;;;;;14.23;2.10;;;;;;;;;;4981128;28;20129;-89
2022/12/22 15:34:42;;;;;;;11.27;2.22;;;;;;;;;;4989056;28;20046;-90
2022/12/22 15:37:10;;;;;;;4.15;2.28;;;;;;;;;;4992198;28;20384;-90
2022/12/22 15:39:39;;;;;;;10.93;2.42;;;;;;;;;;4984388;28;20482;-90
2022/12/22 15:42:07;;;;;;;9.80;2.45;;;;;;;;;;4986822;28;20550;-90
2022/12/22 15:44:33;;;;;;;11.18;2.17;;;;;;;;;;4991379;28;20506;-89
2022/12/22 15:46:59;;;;;;;10.07;2.92;;;;;;;;;;4967533;28;20030;-91
2022/12/22 15:49:27;;;;;;;7.75;2.83;;;;;;;;;;4984694;28;20630;-90
2022/12/22 15:51:56;;;;;;;4.53;2.00;;;;;;;;;;4996731;28;20549;-90
2022/12/22 15:54:22;;;;;;;11.25;2.80;;;;;;;;;;5004226;28;20399;-91
2022/12/22 15:56:50;;;;;;;6.68;3.22;;;;;;;;;;4999187;28;20037;-90
2022/12/22 15:59:18;;;;;;;6.80;2.65;;;;;;;;;;4982752;28;20591;-90
2022/12/22 16:01:44;;;;;;;13.25;2.72;;;;;;;;;;4985871;28;20030;-90
2022/12/22 16:04:11;;;;;;;15.48;3.70;;;;;;;;;;4969204;28;20120;-89
2022/12/22 16:06:37;;;;;;;13.07;3.63;;;;;;;;;;4978993;28;20022;-89
2022/12/22 16:09:05;;;;;;;8.75;3.30;;;;;;;;;;4993648;28;20029;-90
2022/12/22 16:11:35;;;;;;;17.17;3.72;;;;;;;;;;4985986;28;20341;-90
2022/12/22 16:14:01;;;;;;;12.73;3.30;;;;;;;;;;4984109;28;20118;-91
2022/12/22 16:16:27;;;;;;;15.70;4.10;;;;;;;;;;4996726;28;20515;-90
2022/12/22 16:18:53;;;;;;;18.52;3.50;;;;;;;;;;4984279;28;20953;-90
2022/12/22 16:21:20;;;;;;;8.00;3.00;;;;;;;;;;4986038;28;20108;-90
2022/12/22 16:23:49;;;;;;;10.13;3.10;;;;;;;;;;5000702;28;20961;-91
2022/12/22 16:26:17;;;;;;;10.65;3.50;;;;;;;;;;5003736;28;20105;-89
2022/12/22 16:28:43;;;;;;;12.10;3.88;;;;;;;;;;4990523;28;20035;-89
2022/12/22 16:31:16;;;;;;;12.88;4.25;;;;;;;;;;5000339;28;20041;-90
2022/12/22 16:33:42;;;;;;;14.13;3.85;;;;;;;;;;4981430;28;20022;-91
2022/12/22 16:36:08;;;;;;;19.40;5.57;;;;;;;;;;4970218;28;20034;-90
2022/12/22 16:38:35;;;;;;;10.25;4.05;;;;;;;;;;4974847;28;20049;-90
2022/12/22 16:41:02;;;;;;;14.18;5.13;;;;;;;;;;5003903;28;20030;-90
2022/12/22 16:43:40;;;;;;;23.73;6.78;;;;;;;;;;4974114;28;20061;-91
2022/12/22 16:46:11;;;;;;;15.35;4.32;;;;;;;;;;4991619;28;20487;-90
2022/12/22 16:48:42;;;;;;;19.65;4.63;;;;;;;;;;4991119;28;20030;-90
2022/12/22 16:51:13;;;;;;;17.30;4.57;;;;;;;;;;4998294;28;20038;-91
2022/12/22 16:53:39;;;;;;;11.00;5.28;;;;;;;;;;4988912;28;20029;-90
2022/12/22 16:56:05;;;;;;;28.52;5.38;;;;;;;;;;4965226;28;20072;-88
2022/12/22 16:58:32;;;;;;;18.45;5.45;;;;;;;;;;4999007;28;20440;-89
2022/12/22 17:00:58;;;;;;;20.30;6.32;;;;;;;;;;4989436;28;20037;-88
2022/12/22 17:03:25;;;;;;;15.45;7.60;;;;;;;;;;4999411;28;20045;-88
2022/12/22 17:05:52;;;;;;;11.70;5.63;;;;;;;;;;4998204;28;20632;-88
2022/12/22 17:08:21;;;;;;;17.27;8.55;;;;;;;;;;4987110;28;20068;-88
2022/12/22 17:10:47;;;;;;;13.07;6.15;;;;;;;;;;4974490;28;20034;-87
2022/12/22 17:13:14;;;;;;;20.58;9.55;;;;;;;;;;4977583;28;20136;-90
2022/12/22 17:15:40;;;;;;;26.17;10.07;;;;;;;;;;4971588;28;20120;-88
2022/12/22 17:18:13;;;;;;;17.15;8.65;;;;;;;;;;4971216;28;20034;-88
2022/12/22 17:20:39;;;;;;;34.95;11.40;;;;;;;;;;4994342;28;20029;-89
2022/12/22 17:23:05;;;;;;;27.02;9.77;;;;;;;;;;4969296;28;20136;-89
2022/12/22 17:25:31;;;;;;;22.80;11.32;;;;;;;;;;4969760;28;20042;-89
2022/12/22 17:28:00;;;;;;;25.00;11.48;;;;;;;;;;4969138;28;20038;-89
2022/12/22 17:30:27;;;;;;;21.70;10.65;;;;;;;;;;4995821;28;20066;-89
2022/12/22 17:32:53;;;;;;;16.77;8.63;;;;;;;;;;4982861;28;20142;-89
2022/12/22 17:35:21;;;;;;;28.52;13.90;;;;;;;;;;4981464;28;20411;-88
2022/12/22 17:37:48;;;;;;;33.83;12.25;;;;;;;;;;5002814;28;20029;-89
2022/12/22 17:40:18;;;;;;;27.75;13.75;;;;;;;;;;4968191;28;20033;-88
2022/12/22 17:42:44;;;;;;;21.08;8.68;;;;;;;;;;5002446;28;20441;-88
2022/12/22 17:45:17;;;;;;;34.45;15.05;;;;;;;;;;4988022;28;20133;-89
2022/12/22 17:47:43;;;;;;;31.10;13.63;;;;;;;;;;4998252;28;20022;-89
2022/12/22 17:50:14;;;;;;;32.22;15.07;;;;;;;;;;4982965;28;20505;-89
2022/12/22 17:52:41;;;;;;;42.13;15.60;;;;;;;;;;4984940;28;20153;-89
2022/12/22 17:55:22;;;;;;;33.53;14.38;;;;;;;;;;4967290;28;20049;-89
2022/12/22 17:57:48;;;;;;;26.80;11.88;;;;;;;;;;4983143;28;20034;-88
2022/12/22 18:00:19;;;;;;;30.65;11.20;;;;;;;;;;4980893;28;20030;-88
2022/12/22 18:02:45;;;;;;;26.67;10.40;;;;;;;;;;4998369;28;20037;-89
2022/12/22 18:05:15;;;;;;;15.25;6.93;;;;;;;;;;4994829;28;20034;-88
2022/12/22 18:07:41;;;;;;;36.47;13.65;;;;;;;;;;4999676;28;20026;-88
2022/12/22 18:10:07;;;;;;;23.67;10.75;;;;;;;;;;4982050;28;20030;-88
2022/12/22 18:12:34;;;;;;;36.13;13.00;;;;;;;;;;4988087;28;20030;-88
2022/12/22 18:15:00;;;;;;;32.05;13.27;;;;;;;;;;4960259;28;20057;-88
2022/12/22 18:17:27;;;;;;;30.40;12.38;;;;;;;;;;4968164;28;20080;-88